Time;durP1;ratioP1;P1;durP2;ratioP2;P2;SDS_P1;SDS_P2;PMS_P1;PMS_P2;Temp;Humidity;BMP_temperature;BMP_pressure;BME280_temperature;BME280_humidity;BME280_pressure;Samples;Min_cycle;Max_cycle;Signal;HPM_P1;HPM_P2
2023/03/14 00:01:20;;;;;;;18.10;3.00;;;11.00;99.90;;;;;;5112987;28;20031;-38
2023/03/14 00:03:45;;;;;;;11.00;2.78;;;11.00;99.90;;;;;;5110638;28;21295;-37
2023/03/14 00:06:12;;;;;;;26.73;2.78;;;11.00;99.90;;;;;;5097430;28;20029;-42
2023/03/14 00:08:38;;;;;;;17.85;3.72;;;11.10;99.90;;;;;;5105081;28;20031;-37
2023/03/14 00:11:10;;;;;;;16.52;2.72;;;11.10;99.90;;;;;;5109476;28;20388;-38
2023/03/14 00:13:35;;;;;;;15.50;4.18;;;11.10;99.90;;;;;;5092424;28;20034;-37
2023/03/14 00:16:03;;;;;;;33.75;5.00;;;11.10;99.90;;;;;;5092728;28;20024;-39
2023/03/14 00:18:29;;;;;;;33.13;4.25;;;11.10;99.90;;;;;;5092084;28;20048;-41
2023/03/14 00:20:58;;;;;;;20.52;3.13;;;11.10;99.90;;;;;;5092810;28;20103;-38
2023/03/14 00:23:23;;;;;;;22.60;2.70;;;11.00;99.90;;;;;;5099842;28;20016;-38
2023/03/14 00:25:49;;;;;;;12.38;2.45;;;11.00;99.90;;;;;;5096464;28;20031;-38
2023/03/14 00:28:14;;;;;;;15.27;2.03;;;10.90;99.90;;;;;;5100702;28;20024;-61
2023/03/14 00:30:40;;;;;;;13.80;2.97;;;10.90;99.90;;;;;;5100787;28;20029;-41
2023/03/14 00:33:06;;;;;;;12.25;2.03;;;10.90;99.90;;;;;;5092389;28;20020;-34
2023/03/14 00:35:31;;;;;;;15.50;4.78;;;10.90;99.90;;;;;;5107359;28;20032;-40
2023/03/14 00:37:57;;;;;;;15.00;4.90;;;11.00;99.90;;;;;;5105203;28;20417;-37
2023/03/14 00:40:23;;;;;;;12.18;2.50;;;11.00;99.90;;;;;;5102963;28;20468;-37
2023/03/14 00:42:48;;;;;;;18.02;3.60;;;11.10;99.90;;;;;;5095302;28;20034;-38
2023/03/14 00:45:14;;;;;;;21.33;3.88;;;11.00;99.90;;;;;;5101503;28;20039;-41
2023/03/14 00:47:39;;;;;;;11.77;2.45;;;11.00;99.90;;;;;;5112998;28;20051;-45
2023/03/14 00:50:06;;;;;;;5.03;2.00;;;11.00;99.90;;;;;;5106898;28;20023;-41
2023/03/14 00:52:32;;;;;;;5.82;1.33;;;10.90;99.90;;;;;;5116574;28;20099;-41
2023/03/14 00:54:57;;;;;;;10.30;1.35;;;11.00;99.90;;;;;;5115948;28;20038;-44
2023/03/14 00:57:23;;;;;;;6.28;1.83;;;10.90;99.90;;;;;;5115023;28;20027;-42
2023/03/14 00:59:50;;;;;;;7.65;1.30;;;11.00;99.90;;;;;;5116083;28;20695;-41
2023/03/14 01:02:15;;;;;;;4.90;1.33;;;11.00;99.90;;;;;;5116045;28;20042;-41
2023/03/14 01:04:43;;;;;;;11.30;1.60;;;11.00;99.90;;;;;;5104374;28;20028;-41
2023/03/14 01:07:08;;;;;;;7.13;3.07;;;11.00;99.90;;;;;;5098943;28;20028;-42
2023/03/14 01:09:34;;;;;;;8.35;2.00;;;10.90;99.90;;;;;;5095720;28;20035;-49
2023/03/14 01:12:00;;;;;;;11.23;1.67;;;10.80;99.90;;;;;;5094282;28;20392;-42
2023/03/14 01:14:25;;;;;;;14.57;1.55;;;10.70;99.90;;;;;;5104243;28;20023;-46
2023/03/14 01:16:51;;;;;;;8.98;1.40;;;10.60;99.90;;;;;;5107763;28;20551;-40
2023/03/14 01:19:17;;;;;;;3.53;0.95;;;10.40;99.90;;;;;;5095636;28;20012;-41
2023/03/14 01:21:42;;;;;;;3.35;1.48;;;10.40;99.90;;;;;;5109030;28;20020;-41
2023/03/14 01:24:11;;;;;;;4.03;1.42;;;10.30;99.90;;;;;;5115586;28;20023;-41
2023/03/14 01:26:36;;;;;;;9.60;2.03;;;10.30;99.90;;;;;;5114783;27;20130;-41
2023/03/14 01:29:03;;;;;;;6.40;1.50;;;10.30;99.90;;;;;;5109780;28;20100;-43
2023/03/14 01:31:29;;;;;;;6.75;1.73;;;10.30;99.90;;;;;;5115458;28;20069;-40
2023/03/14 01:33:55;;;;;;;10.02;2.03;;;10.20;99.90;;;;;;5113492;28;20044;-42
2023/03/14 01:36:21;;;;;;;6.60;1.35;;;10.20;99.90;;;;;;5112891;28;20035;-71
2023/03/14 01:38:46;;;;;;;13.32;1.88;;;10.20;99.90;;;;;;5113912;28;20093;-46
2023/03/14 01:41:15;;;;;;;5.38;1.25;;;10.20;99.90;;;;;;5110997;28;20028;-39
2023/03/14 01:43:41;;;;;;;9.45;1.40;;;10.30;99.90;;;;;;5100154;28;20028;-39
2023/03/14 01:46:08;;;;;;;6.88;1.45;;;10.30;99.90;;;;;;5113892;28;20019;-40
2023/03/14 01:48:52;;;;;;;6.63;1.65;;;10.40;99.90;;;;;;5098435;28;20309;-40
2023/03/14 01:51:36;;;;;;;9.00;2.05;;;10.40;99.90;;;;;;5111167;28;20051;-40
2023/03/14 01:54:21;;;;;;;5.57;0.90;;;10.40;99.90;;;;;;5097939;28;20038;-44
2023/03/14 01:56:57;;;;;;;9.60;1.35;;;10.50;99.90;;;;;;5112884;28;20425;-47
2023/03/14 01:59:23;;;;;;;7.10;1.30;;;10.50;99.90;;;;;;5105551;28;20070;-42
2023/03/14 02:01:50;;;;;;;12.32;1.52;;;10.50;99.90;;;;;;5102281;28;20020;-56
2023/03/14 02:04:18;;;;;;;12.27;1.92;;;10.40;99.90;;;;;;5094569;28;20028;-33
2023/03/14 02:06:57;;;;;;;6.70;1.48;;;10.50;99.90;;;;;;5109115;28;20028;-36
2023/03/14 02:09:23;;;;;;;6.20;1.45;;;10.50;99.90;;;;;;5099460;28;20027;-33
2023/03/14 02:11:50;;;;;;;10.68;1.52;;;10.50;99.90;;;;;;5113384;28;20031;-37
2023/03/14 02:14:30;;;;;;;7.83;0.93;;;10.50;99.90;;;;;;5111566;28;20068;-36
2023/03/14 02:16:56;;;;;;;5.20;1.30;;;10.50;99.90;;;;;;5114513;28;20023;-43
2023/03/14 02:19:35;;;;;;;7.90;2.05;;;10.50;99.90;;;;;;5093845;28;20025;-39
2023/03/14 02:22:00;;;;;;;3.95;1.13;;;10.40;99.90;;;;;;5094327;28;20013;-41
2023/03/14 02:24:32;;;;;;;11.73;1.90;;;10.40;99.90;;;;;;5094033;28;20472;-42
2023/03/14 02:27:14;;;;;;;2.42;1.27;;;10.30;99.90;;;;;;5093973;28;20507;-61
2023/03/14 02:29:50;;;;;;;8.98;1.00;;;10.30;99.90;;;;;;5102579;28;20066;-42
2023/03/14 02:32:19;;;;;;;7.60;1.40;;;10.30;99.90;;;;;;5111613;28;20483;-41
2023/03/14 02:34:50;;;;;;;8.00;1.27;;;10.30;99.90;;;;;;5093662;28;20051;-44
2023/03/14 02:37:18;;;;;;;7.25;1.15;;;10.30;99.90;;;;;;5093799;28;20384;-51
2023/03/14 02:39:45;;;;;;;6.32;1.35;;;10.30;99.90;;;;;;5091983;28;20024;-45
2023/03/14 02:42:13;;;;;;;6.05;1.23;;;10.30;99.90;;;;;;5092497;28;20012;-40
2023/03/14 02:44:59;;;;;;;9.77;1.13;;;10.20;99.90;;;;;;5094046;28;20024;-43
2023/03/14 02:47:30;;;;;;;9.75;1.42;;;10.30;99.90;;;;;;5093967;28;20030;-42
2023/03/14 02:50:07;;;;;;;6.65;1.00;;;10.30;99.90;;;;;;5093693;28;20501;-42
2023/03/14 02:52:33;;;;;;;9.52;1.45;;;10.30;99.90;;;;;;5093572;28;20473;-42
2023/03/14 02:54:59;;;;;;;8.75;2.05;;;10.40;99.90;;;;;;5100592;28;20130;-43
2023/03/14 02:57:25;;;;;;;3.63;1.40;;;10.40;99.90;;;;;;5093264;28;20460;-41
2023/03/14 02:59:50;;;;;;;8.13;1.45;;;10.30;99.90;;;;;;5094741;28;20021;-37
2023/03/14 03:02:16;;;;;;;10.02;1.98;;;10.30;99.90;;;;;;5106480;28;20016;-32
2023/03/14 03:04:43;;;;;;;7.95;2.00;;;10.30;99.90;;;;;;5101753;28;20032;-39
2023/03/14 03:07:08;;;;;;;13.15;1.85;;;10.30;99.90;;;;;;5102364;28;20093;-37
2023/03/14 03:09:34;;;;;;;16.90;2.38;;;10.30;99.90;;;;;;5109378;28;20028;-37
2023/03/14 03:12:00;;;;;;;8.02;1.38;;;10.30;99.90;;;;;;5112442;28;20069;-33
2023/03/14 03:14:26;;;;;;;12.90;1.60;;;10.30;99.90;;;;;;5091939;28;20056;-37
2023/03/14 03:16:51;;;;;;;7.40;1.73;;;10.40;99.90;;;;;;5092577;28;20024;-35
2023/03/14 03:19:17;;;;;;;8.60;1.10;;;10.40;99.90;;;;;;5103521;28;20061;-36
2023/03/14 03:21:43;;;;;;;8.77;1.38;;;10.40;99.90;;;;;;5112561;28;20026;-36
2023/03/14 03:24:09;;;;;;;10.38;1.42;;;10.40;99.90;;;;;;5112504;28;20062;-36
2023/03/14 03:26:35;;;;;;;5.25;1.17;;;10.40;99.90;;;;;;5092553;28;20426;-38
2023/03/14 03:29:01;;;;;;;9.05;1.40;;;10.40;99.90;;;;;;5093020;28;20052;-39
2023/03/14 03:31:27;;;;;;;4.20;1.42;;;10.50;99.90;;;;;;5092964;28;20092;-42
2023/03/14 03:33:53;;;;;;;6.50;1.60;;;10.40;99.90;;;;;;5097879;28;20028;-36
2023/03/14 03:36:23;;;;;;;8.10;1.77;;;10.30;99.90;;;;;;5113187;28;20145;-38
2023/03/14 03:38:49;;;;;;;9.40;1.58;;;10.30;99.90;;;;;;5112252;28;20024;-38
2023/03/14 03:41:15;;;;;;;9.43;1.90;;;10.30;99.90;;;;;;5113028;28;20027;-33
2023/03/14 03:43:40;;;;;;;3.83;1.20;;;10.30;99.90;;;;;;5108037;28;20480;-37
2023/03/14 03:46:07;;;;;;;7.43;1.35;;;10.40;99.90;;;;;;5096699;28;20110;-33
2023/03/14 03:48:34;;;;;;;4.30;1.15;;;10.30;99.90;;;;;;5111340;28;20024;-33
2023/03/14 03:51:00;;;;;;;6.63;1.13;;;10.30;99.90;;;;;;5113125;28;20383;-34
2023/03/14 03:53:25;;;;;;;10.48;1.38;;;10.30;99.90;;;;;;5107094;28;20015;-36
2023/03/14 03:55:51;;;;;;;14.30;1.45;;;10.40;99.90;;;;;;5093186;28;20141;-35
2023/03/14 03:58:17;;;;;;;6.28;1.83;;;10.40;99.90;;;;;;5092232;28;20085;-37
2023/03/14 04:00:42;;;;;;;9.43;2.03;;;10.40;99.90;;;;;;5094829;28;20069;-34
2023/03/14 04:03:08;;;;;;;14.45;1.27;;;10.40;99.90;;;;;;5093859;28;20031;-33
2023/03/14 04:05:34;;;;;;;6.32;1.60;;;10.50;99.90;;;;;;5092600;28;20059;-35
2023/03/14 04:08:00;;;;;;;14.20;2.50;;;10.50;99.90;;;;;;5102245;28;20027;-36
2023/03/14 04:10:26;;;;;;;9.95;1.48;;;10.50;99.90;;;;;;5084258;28;20064;-33
2023/03/14 04:12:52;;;;;;;9.15;1.55;;;10.50;99.90;;;;;;5099290;28;20102;-35
2023/03/14 04:15:18;;;;;;;10.07;1.83;;;10.50;99.90;;;;;;5108713;28;20396;-66
2023/03/14 04:17:44;;;;;;;5.80;1.30;;;10.60;99.90;;;;;;5105872;28;20038;-41
2023/03/14 04:20:13;;;;;;;5.47;1.27;;;10.60;99.90;;;;;;5109627;28;20031;-44
2023/03/14 04:22:39;;;;;;;7.35;1.38;;;10.60;99.90;;;;;;5115383;28;20031;-44
2023/03/14 04:25:05;;;;;;;10.50;2.08;;;10.60;99.90;;;;;;5114328;28;20024;-41
2023/03/14 04:27:31;;;;;;;5.80;1.30;;;10.50;99.90;;;;;;5106024;28;20110;-40
2023/03/14 04:29:57;;;;;;;7.07;1.27;;;10.50;99.90;;;;;;5115126;28;20492;-43
2023/03/14 04:32:23;;;;;;;14.32;1.35;;;10.60;99.90;;;;;;5113724;28;20031;-53
2023/03/14 04:34:48;;;;;;;4.45;1.35;;;10.60;99.90;;;;;;5102745;28;20027;-45
2023/03/14 04:37:14;;;;;;;8.50;1.23;;;10.60;99.90;;;;;;5101026;28;20357;-41
2023/03/14 04:39:40;;;;;;;10.90;1.92;;;10.50;99.90;;;;;;5102546;28;20016;-45
2023/03/14 04:42:05;;;;;;;11.00;1.60;;;10.50;99.90;;;;;;5110724;28;20020;-40
2023/03/14 04:44:31;;;;;;;8.82;2.17;;;10.50;99.90;;;;;;5112272;28;20027;-40
2023/03/14 04:46:57;;;;;;;8.23;1.45;;;10.60;99.90;;;;;;5110227;28;20381;-40
2023/03/14 04:49:23;;;;;;;8.80;1.23;;;10.60;99.90;;;;;;5095767;28;20036;-43
2023/03/14 04:51:50;;;;;;;6.03;1.45;;;10.60;99.90;;;;;;5097733;28;20518;-42
2023/03/14 04:54:17;;;;;;;8.00;1.73;;;10.60;99.90;;;;;;5103427;28;20020;-41
2023/03/14 04:56:42;;;;;;;11.77;1.20;;;10.50;99.90;;;;;;5101098;28;20027;-41
2023/03/14 04:59:08;;;;;;;7.30;1.35;;;10.50;99.90;;;;;;5101233;28;20020;-69
2023/03/14 05:01:34;;;;;;;10.27;1.30;;;10.40;99.90;;;;;;5110117;28;20073;-43
2023/03/14 05:04:00;;;;;;;8.93;1.33;;;10.40;99.90;;;;;;5111393;28;20160;-38
2023/03/14 05:06:25;;;;;;;4.72;1.10;;;10.30;99.90;;;;;;5107547;28;20021;-50
2023/03/14 05:08:51;;;;;;;5.65;1.42;;;10.20;99.90;;;;;;5096015;28;20095;-41
2023/03/14 05:11:18;;;;;;;4.43;1.02;;;10.20;99.90;;;;;;5098515;28;20496;-41
2023/03/14 05:13:43;;;;;;;4.00;1.67;;;10.10;99.90;;;;;;5109691;28;20100;-41
2023/03/14 05:16:10;;;;;;;10.43;1.83;;;10.10;99.90;;;;;;5093777;28;20491;-40
2023/03/14 05:18:36;;;;;;;8.05;1.63;;;10.10;99.90;;;;;;5098719;28;20132;-40
2023/03/14 05:21:02;;;;;;;8.13;1.70;;;10.00;99.90;;;;;;5095958;28;20020;-38
2023/03/14 05:23:28;;;;;;;12.35;1.67;;;9.90;99.90;;;;;;5095353;28;20479;-40
2023/03/14 05:25:54;;;;;;;13.73;1.92;;;9.90;99.90;;;;;;5111002;28;20028;-39
2023/03/14 05:28:20;;;;;;;10.45;1.83;;;9.90;99.90;;;;;;5117983;27;20027;-57
2023/03/14 05:30:45;;;;;;;8.48;1.60;;;9.80;99.90;;;;;;5098766;28;20028;-39
2023/03/14 05:33:11;;;;;;;3.90;1.33;;;9.80;99.90;;;;;;5095045;28;20028;-39
2023/03/14 05:35:37;;;;;;;6.40;1.85;;;9.80;99.90;;;;;;5093235;28;20047;-39
2023/03/14 05:38:02;;;;;;;10.18;2.47;;;9.70;99.90;;;;;;5097352;28;20020;-39
2023/03/14 05:40:28;;;;;;;8.68;1.80;;;9.70;99.90;;;;;;5095010;28;20028;-39
2023/03/14 05:42:53;;;;;;;7.18;1.58;;;9.70;99.90;;;;;;5095207;28;20483;-41
2023/03/14 05:45:19;;;;;;;4.50;1.63;;;9.70;99.90;;;;;;5095653;28;20066;-41
2023/03/14 05:47:45;;;;;;;7.43;2.53;;;9.70;99.90;;;;;;5111318;28;20031;-39
2023/03/14 05:50:11;;;;;;;11.13;2.30;;;9.60;99.90;;;;;;5115053;28;20042;-39
2023/03/14 05:52:37;;;;;;;10.90;3.05;;;9.60;99.90;;;;;;5104381;28;20507;-40
2023/03/14 05:55:03;;;;;;;7.40;2.65;;;9.70;99.90;;;;;;5095019;28;20027;-40
2023/03/14 05:57:29;;;;;;;11.20;2.90;;;9.60;99.90;;;;;;5115051;28;20046;-39
2023/03/14 05:59:54;;;;;;;6.95;2.58;;;9.60;99.90;;;;;;5113247;28;20388;-39
2023/03/14 06:02:20;;;;;;;6.28;2.85;;;9.60;99.90;;;;;;5114925;28;20034;-38
2023/03/14 06:04:46;;;;;;;8.45;3.15;;;9.60;99.90;;;;;;5114979;28;20545;-39
2023/03/14 06:07:11;;;;;;;3.88;2.38;;;9.60;99.90;;;;;;5115009;28;20027;-38
2023/03/14 06:09:37;;;;;;;5.97;2.35;;;9.60;99.90;;;;;;5105944;28;20441;-39
2023/03/14 06:12:03;;;;;;;5.00;2.90;;;9.70;99.90;;;;;;5095028;28;20036;-42
2023/03/14 06:14:29;;;;;;;10.40;2.90;;;9.70;99.90;;;;;;5112465;28;20562;-42
2023/03/14 06:16:54;;;;;;;6.47;2.67;;;9.60;99.90;;;;;;5114516;28;20042;-38
2023/03/14 06:19:20;;;;;;;4.45;1.50;;;9.50;99.90;;;;;;5113392;28;20076;-67
2023/03/14 06:21:46;;;;;;;2.38;0.98;;;9.30;99.90;;;;;;5114901;28;20494;-38
2023/03/14 06:24:12;;;;;;;0.95;0.47;;;9.00;99.90;;;;;;5110979;28;20027;-44
2023/03/14 06:26:38;;;;;;;3.33;1.10;;;8.70;99.90;;;;;;5112930;28;20157;-39
2023/03/14 06:29:04;;;;;;;5.60;1.38;;;8.60;99.90;;;;;;5103882;28;20028;-39
2023/03/14 06:31:30;;;;;;;5.63;0.85;;;8.50;99.90;;;;;;5103870;28;20528;-40
2023/03/14 06:33:56;;;;;;;2.60;0.90;;;8.30;99.90;;;;;;5097493;28;20044;-39
2023/03/14 06:36:22;;;;;;;11.07;0.93;;;8.30;99.90;;;;;;5105628;28;20019;-38
2023/03/14 06:38:47;;;;;;;1.27;0.30;;;8.20;99.90;;;;;;5103304;28;20114;-39
2023/03/14 06:41:13;;;;;;;4.28;0.75;;;8.20;99.90;;;;;;5114135;28;20032;-42
2023/03/14 06:43:39;;;;;;;5.95;1.17;;;8.20;99.90;;;;;;5107136;28;20045;-41
2023/03/14 06:46:05;;;;;;;5.25;0.45;;;8.10;99.90;;;;;;5096604;28;20541;-42
2023/03/14 06:48:31;;;;;;;2.60;0.43;;;8.10;99.90;;;;;;5093677;28;20488;-41
2023/03/14 06:50:56;;;;;;;1.48;0.35;;;8.10;99.90;;;;;;5093808;28;20035;-39
2023/03/14 06:53:22;;;;;;;0.93;0.52;;;8.00;99.90;;;;;;5099861;28;20073;-39
2023/03/14 06:55:48;;;;;;;4.43;0.52;;;8.00;99.90;;;;;;5111994;28;20032;-40
2023/03/14 06:58:14;;;;;;;0.50;0.43;;;8.10;99.90;;;;;;5112283;28;20055;-40
2023/03/14 07:00:40;;;;;;;4.15;0.95;;;8.10;99.90;;;;;;5113916;28;20027;-39
2023/03/14 07:03:05;;;;;;;4.50;1.08;;;8.10;99.90;;;;;;5111459;28;20023;-39
2023/03/14 07:05:31;;;;;;;0.80;0.68;;;8.00;99.90;;;;;;5096269;28;20051;-39
2023/03/14 07:07:57;;;;;;;2.25;0.80;;;8.00;99.90;;;;;;5094471;28;20024;-48
2023/03/14 07:10:23;;;;;;;4.95;0.90;;;7.90;99.90;;;;;;5093093;28;20473;-40
2023/03/14 07:12:48;;;;;;;5.05;0.90;;;7.90;99.90;;;;;;5092895;28;20111;-42
2023/03/14 07:15:14;;;;;;;3.88;0.80;;;7.90;99.90;;;;;;5093283;28;20032;-40
2023/03/14 07:17:40;;;;;;;3.08;0.75;;;7.80;99.90;;;;;;5093119;28;20024;-40
2023/03/14 07:20:07;;;;;;;3.03;0.60;;;7.80;99.90;;;;;;5108955;28;20103;-41
2023/03/14 07:22:33;;;;;;;2.33;0.67;;;7.70;99.90;;;;;;5095419;28;20020;-39
2023/03/14 07:24:58;;;;;;;4.03;0.45;;;7.70;99.90;;;;;;5094845;28;20024;-39
2023/03/14 07:27:24;;;;;;;1.55;0.60;;;7.60;99.90;;;;;;5113348;28;20039;-32
2023/03/14 07:29:50;;;;;;;6.38;0.52;;;7.60;99.90;;;;;;5111849;28;20383;-34
2023/03/14 07:32:17;;;;;;;2.55;0.68;;;7.60;99.90;;;;;;5098497;28;20028;-34
2023/03/14 07:34:42;;;;;;;3.65;0.60;;;7.70;99.90;;;;;;5108347;28;20068;-32
2023/03/14 07:37:08;;;;;;;5.35;1.02;;;7.70;99.90;;;;;;5092945;28;20071;-36
2023/03/14 07:39:34;;;;;;;2.45;0.70;;;7.70;99.90;;;;;;5092501;28;20024;-38
2023/03/14 07:42:00;;;;;;;5.47;0.73;;;7.70;99.90;;;;;;5092890;28;20031;-33
2023/03/14 07:44:26;;;;;;;1.45;0.75;;;7.70;99.90;;;;;;5092467;28;20036;-38
2023/03/14 07:46:51;;;;;;;5.57;0.77;;;7.70;99.90;;;;;;5092860;28;20133;-36
2023/03/14 07:49:17;;;;;;;4.78;0.50;;;7.60;99.90;;;;;;5102237;28;20024;-35
2023/03/14 07:51:43;;;;;;;0.43;0.40;;;7.60;99.90;;;;;;5096173;28;20505;-43
2023/03/14 07:54:10;;;;;;;8.00;1.17;;;7.40;99.90;;;;;;5103744;28;20154;-35
2023/03/14 07:56:35;;;;;;;2.17;0.50;;;7.40;99.90;;;;;;5099665;28;20075;-34
2023/03/14 07:59:01;;;;;;;4.70;0.32;;;7.40;99.90;;;;;;5114640;28;20549;-34
2023/03/14 08:01:27;;;;;;;7.00;0.95;;;7.40;99.90;;;;;;5104004;28;20019;-36
2023/03/14 08:03:52;;;;;;;2.75;0.65;;;7.40;99.90;;;;;;5104431;28;20023;-37
2023/03/14 08:06:18;;;;;;;5.15;0.30;;;7.40;99.90;;;;;;5095439;28;20089;-37
2023/03/14 08:08:44;;;;;;;4.57;0.50;;;7.20;99.90;;;;;;5097980;28;20459;-37
2023/03/14 08:11:09;;;;;;;5.43;0.57;;;7.00;99.90;;;;;;5096666;28;20396;-42
2023/03/14 08:13:36;;;;;;;4.22;0.75;;;6.60;99.90;;;;;;5095771;28;20555;-31
2023/03/14 08:16:03;;;;;;;3.47;0.32;;;6.40;99.90;;;;;;5105119;28;20051;-36
2023/03/14 08:18:28;;;;;;;1.95;0.40;;;6.30;99.90;;;;;;5095917;28;20073;-38
2023/03/14 08:20:54;;;;;;;8.60;0.95;;;6.20;99.90;;;;;;5099050;28;20392;-35
2023/03/14 08:23:20;;;;;;;6.50;1.15;;;6.10;99.90;;;;;;5099682;28;20096;-36
2023/03/14 08:25:47;;;;;;;5.70;0.50;;;6.20;99.90;;;;;;5109366;28;20491;-35
2023/03/14 08:28:13;;;;;;;3.45;0.63;;;6.10;99.90;;;;;;5096775;28;20438;-35
2023/03/14 08:30:39;;;;;;;3.17;0.40;;;6.10;99.90;;;;;;5110794;28;20080;-34
2023/03/14 08:33:04;;;;;;;2.17;0.70;;;6.00;99.90;;;;;;5102702;28;20515;-39
2023/03/14 08:35:30;;;;;;;6.90;0.38;;;5.90;99.90;;;;;;5099501;27;20040;-45
2023/03/14 08:37:55;;;;;;;3.50;0.73;;;6.00;99.90;;;;;;5112298;28;20019;-33
2023/03/14 08:40:21;;;;;;;0.32;0.10;;;5.90;99.90;;;;;;5102127;28;20024;-32
2023/03/14 08:42:47;;;;;;;6.32;0.38;;;5.90;99.90;;;;;;5099870;28;20051;-41
2023/03/14 08:45:16;;;;;;;3.38;0.45;;;5.90;99.90;;;;;;5096335;28;20068;-34
2023/03/14 08:47:42;;;;;;;0.43;0.28;;;6.00;99.90;;;;;;5095958;28;20048;-34
2023/03/14 08:50:09;;;;;;;2.40;0.38;;;6.10;99.90;;;;;;5105868;28;20084;-33
2023/03/14 08:52:37;;;;;;;2.10;0.28;;;6.20;99.90;;;;;;5103288;28;20063;-32
2023/03/14 08:55:03;;;;;;;1.73;0.35;;;6.30;99.90;;;;;;5113178;28;20024;-34
2023/03/14 08:57:29;;;;;;;4.38;1.55;;;6.50;99.90;;;;;;5098409;28;20548;-37
2023/03/14 08:59:56;;;;;;;11.48;1.05;;;6.60;99.90;;;;;;5098178;28;20032;-39
2023/03/14 09:02:23;;;;;;;1.92;0.88;;;6.60;99.90;;;;;;5101398;28;20039;-33
2023/03/14 09:04:53;;;;;;;3.35;0.45;;;6.60;99.90;;;;;;5102614;28;20685;-33
2023/03/14 09:07:19;;;;;;;1.38;0.50;;;6.70;99.90;;;;;;5096794;28;20032;-36
2023/03/14 09:09:45;;;;;;;3.97;0.52;;;6.70;99.90;;;;;;5096406;28;20414;-35
2023/03/14 09:12:11;;;;;;;14.40;1.38;;;6.70;99.90;;;;;;5102969;28;20020;-34
2023/03/14 09:14:37;;;;;;;2.55;0.50;;;6.70;99.90;;;;;;5096184;28;20061;-35
2023/03/14 09:17:03;;;;;;;7.32;0.90;;;6.70;99.90;;;;;;5115552;28;20464;-36
2023/03/14 09:19:29;;;;;;;8.82;1.10;;;6.70;99.90;;;;;;5115787;28;20028;-33
2023/03/14 09:21:55;;;;;;;10.25;1.30;;;6.80;99.90;;;;;;5114511;28;20023;-34
2023/03/14 09:24:21;;;;;;;3.60;1.05;;;6.70;99.90;;;;;;5115431;28;20020;-42
2023/03/14 09:26:46;;;;;;;18.73;1.38;;;6.60;99.90;;;;;;5097456;28;20557;-36
2023/03/14 09:29:12;;;;;;;10.32;1.40;;;6.60;99.90;;;;;;5096117;28;20054;-38
2023/03/14 09:31:38;;;;;;;9.68;1.40;;;6.40;99.90;;;;;;5115361;28;20019;-33
2023/03/14 09:34:03;;;;;;;5.72;0.80;;;6.50;99.90;;;;;;5115247;28;20044;-35
2023/03/14 09:36:30;;;;;;;13.07;1.35;;;6.50;99.90;;;;;;5110092;28;20381;-39
2023/03/14 09:38:56;;;;;;;11.90;1.58;;;6.50;99.90;;;;;;5097533;28;20067;-38
2023/03/14 09:41:31;;;;;;;7.70;1.25;;;6.50;99.90;;;;;;5097924;28;20099;-37
2023/03/14 09:44:17;;;;;;;7.20;1.10;;;6.60;99.90;;;;;;5094805;28;20103;-36
2023/03/14 09:46:48;;;;;;;11.05;1.67;;;6.60;99.90;;;;;;5078350;28;20027;-32
2023/03/14 09:49:25;;;;;;;12.15;1.63;;;6.60;99.90;;;;;;5094666;28;20035;-33
2023/03/14 09:51:54;;;;;;;15.63;0.85;;;6.60;99.90;;;;;;5094814;28;20119;-35
2023/03/14 09:54:43;;;;;;;9.90;1.35;;;6.60;99.90;;;;;;5094610;28;20036;-35
2023/03/14 09:57:20;;;;;;;14.55;1.65;;;6.70;99.90;;;;;;5094921;28;20069;-34
2023/03/14 09:59:47;;;;;;;12.93;2.80;;;6.80;99.90;;;;;;5093412;28;20560;-42
2023/03/14 10:02:15;;;;;;;21.00;1.58;;;6.80;99.90;;;;;;5094682;28;20118;-40
2023/03/14 10:04:44;;;;;;;10.27;1.08;;;6.80;99.90;;;;;;5094772;28;20106;-40
2023/03/14 10:07:21;;;;;;;25.17;1.80;;;6.80;99.90;;;;;;5094411;28;20484;-33
2023/03/14 10:09:50;;;;;;;14.98;1.10;;;6.70;99.90;;;;;;5094481;28;20412;-35
2023/03/14 10:12:17;;;;;;;14.73;1.63;;;6.60;99.90;;;;;;5094334;28;20107;-34
2023/03/14 10:14:51;;;;;;;11.35;1.52;;;6.60;99.90;;;;;;5093464;28;20031;-34
2023/03/14 10:17:18;;;;;;;18.65;1.70;;;6.60;99.90;;;;;;5094280;28;20094;-37
2023/03/14 10:19:59;;;;;;;13.32;1.58;;;6.80;99.90;;;;;;5094241;28;20414;-35
2023/03/14 10:22:28;;;;;;;9.63;1.90;;;6.80;99.90;;;;;;5094216;28;20080;-35
2023/03/14 10:24:59;;;;;;;17.30;1.83;;;6.80;99.90;;;;;;5094001;28;20062;-35
2023/03/14 10:27:33;;;;;;;26.02;2.58;;;6.90;99.90;;;;;;5094062;28;20031;-39
2023/03/14 10:30:01;;;;;;;15.60;1.50;;;7.00;99.90;;;;;;5094162;28;20039;-39
2023/03/14 10:32:37;;;;;;;14.85;1.73;;;6.90;99.90;;;;;;5094030;28;20035;-39
2023/03/14 10:35:18;;;;;;;10.15;1.48;;;7.00;99.90;;;;;;5093577;28;20044;-38
2023/03/14 10:38:02;;;;;;;12.45;1.48;;;7.10;99.90;;;;;;5097006;28;20024;-39
2023/03/14 10:40:33;;;;;;;5.93;1.52;;;7.10;99.90;;;;;;5093945;28;20031;-35
2023/03/14 10:43:00;;;;;;;26.17;2.45;;;7.30;99.90;;;;;;5093696;28;20020;-37
2023/03/14 10:45:32;;;;;;;27.73;2.58;;;7.30;99.90;;;;;;5093709;28;20480;-33
2023/03/14 10:48:20;;;;;;;28.33;2.13;;;7.20;99.90;;;;;;5093828;28;20468;-39
2023/03/14 10:50:53;;;;;;;11.48;1.38;;;7.10;99.90;;;;;;5088937;28;20046;-40
2023/03/14 10:53:19;;;;;;;11.23;1.75;;;6.70;99.90;;;;;;5093682;28;20020;-42
2023/03/14 10:55:45;;;;;;;16.27;2.63;;;6.30;99.90;;;;;;5093544;28;20434;-42
2023/03/14 10:58:26;;;;;;;17.13;2.80;;;6.20;99.90;;;;;;5093588;28;20028;-32
2023/03/14 11:01:00;;;;;;;18.40;2.38;;;6.20;99.90;;;;;;5093829;28;20472;-39
2023/03/14 11:03:29;;;;;;;17.65;2.13;;;6.40;99.90;;;;;;5092210;28;20472;-33
2023/03/14 11:06:14;;;;;;;19.88;2.03;;;6.60;99.90;;;;;;5093372;28;20085;-34
2023/03/14 11:09:18;;;;;;;9.23;1.60;;;6.80;99.90;;;;;;5093444;28;20031;-33
2023/03/14 11:11:47;;;;;;;18.85;1.75;;;6.80;99.90;;;;;;5093361;28;20032;-40
2023/03/14 11:14:42;;;;;;;16.67;2.10;;;6.90;99.90;;;;;;5093176;28;20272;-32
2023/03/14 11:17:46;;;;;;;14.60;1.55;;;7.00;99.90;;;;;;5092541;28;20037;-36
2023/03/14 11:20:44;;;;;;;13.13;2.00;;;7.30;99.90;;;;;;5091942;28;20036;-35
2023/03/14 11:23:20;;;;;;;9.48;2.05;;;7.40;99.90;;;;;;5091897;28;20036;-38
2023/03/14 11:26:03;;;;;;;8.45;1.23;;;7.50;99.90;;;;;;5092700;28;20028;-37
2023/03/14 11:28:38;;;;;;;15.93;2.00;;;7.70;99.90;;;;;;5093007;28;20039;-34
2023/03/14 11:31:23;;;;;;;15.23;1.83;;;7.90;99.90;;;;;;5093020;28;20036;-35
2023/03/14 11:33:58;;;;;;;26.20;1.98;;;7.80;99.90;;;;;;5092707;28;20481;-32
2023/03/14 11:36:41;;;;;;;11.07;1.73;;;7.60;99.90;;;;;;5092788;28;20047;-35
2023/03/14 11:39:14;;;;;;;27.17;2.42;;;7.40;99.90;;;;;;5092981;28;20082;-34
2023/03/14 11:41:45;;;;;;;13.98;2.28;;;7.60;99.90;;;;;;5092952;28;20115;-37
2023/03/14 11:44:23;;;;;;;8.48;1.02;;;7.90;99.90;;;;;;5092933;28;20449;-37
2023/03/14 11:46:52;;;;;;;8.80;1.30;;;8.20;99.90;;;;;;5091591;28;20046;-39
2023/03/14 11:49:48;;;;;;;4.82;1.00;;;8.10;99.90;;;;;;5092859;28;20035;-44
2023/03/14 11:52:19;;;;;;;7.10;1.15;;;8.20;99.90;;;;;;5092865;28;20032;-44
2023/03/14 11:54:54;;;;;;;11.38;1.20;;;8.20;99.90;;;;;;5093079;28;20032;-42
2023/03/14 11:57:21;;;;;;;8.50;1.85;;;8.20;99.90;;;;;;5092950;28;20028;-40
2023/03/14 11:59:59;;;;;;;5.88;0.80;;;8.10;99.90;;;;;;5092947;28;20506;-43
2023/03/14 12:02:40;;;;;;;4.53;1.02;;;8.20;99.90;;;;;;5093227;28;20499;-42
2023/03/14 12:05:40;;;;;;;13.63;1.20;;;8.40;99.90;;;;;;5092817;28;20439;-43
2023/03/14 12:08:08;;;;;;;17.52;1.83;;;8.30;99.90;;;;;;5092965;28;20492;-43
2023/03/14 12:10:45;;;;;;;10.43;1.00;;;8.20;99.90;;;;;;5092687;28;20123;-50
2023/03/14 12:13:12;;;;;;;16.67;1.30;;;8.30;99.90;;;;;;5092873;28;20568;-38
2023/03/14 12:15:58;;;;;;;12.10;0.90;;;8.50;99.90;;;;;;5092521;28;20055;-40
2023/03/14 12:18:29;;;;;;;4.18;1.10;;;8.70;99.90;;;;;;5092670;28;20495;-39
2023/03/14 12:21:01;;;;;;;9.02;0.88;;;8.60;99.90;;;;;;5092687;28;20020;-50
2023/03/14 12:23:28;;;;;;;9.32;0.93;;;8.40;99.90;;;;;;5092639;28;20059;-47
2023/03/14 12:26:11;;;;;;;11.60;0.88;;;8.40;99.90;;;;;;5092512;28;20114;-48
2023/03/14 12:28:39;;;;;;;8.35;0.60;;;8.40;99.90;;;;;;5092601;28;20142;-45
2023/03/14 12:31:30;;;;;;;7.13;1.02;;;8.40;99.90;;;;;;5098356;28;20043;-39
2023/03/14 12:34:11;;;;;;;5.65;0.85;;;8.40;99.90;;;;;;5098147;28;20024;-41
2023/03/14 12:36:51;;;;;;;8.10;0.90;;;8.40;99.90;;;;;;5098287;28;20027;-38
2023/03/14 12:39:31;;;;;;;8.90;1.00;;;8.40;99.90;;;;;;5115314;28;20034;-40
2023/03/14 12:42:07;;;;;;;5.45;0.93;;;8.70;99.90;;;;;;5115124;28;20428;-36
2023/03/14 12:44:32;;;;;;;7.13;0.73;;;8.90;99.90;;;;;;5108968;28;20028;-35
2023/03/14 12:46:59;;;;;;;5.18;0.90;;;9.00;99.90;;;;;;5102772;28;20445;-37
2023/03/14 12:49:37;;;;;;;8.87;1.30;;;8.80;99.90;;;;;;5109777;28;20112;-38
2023/03/14 12:52:13;;;;;;;;;;;8.70;99.90;;;;;;5107973;28;20069;-43
2023/03/14 12:54:41;;;;;;;4.85;0.75;;;8.80;99.90;;;;;;5104991;28;19912;-43
2023/03/14 12:57:45;;;;;;;4.97;0.60;;;9.00;99.90;;;;;;5095500;28;20476;-40
2023/03/14 13:00:32;;;;;;;4.05;0.82;;;8.90;99.90;;;;;;5087987;28;20036;-37